sensor_id;sensor_type;location;lat;lon;timestamp;P1;durP1;ratioP1;P2;durP2;ratioP2
71626;SDS011;59475;52.464;13.590;2023-05-23T00:00:58;5.57;;;3.60;;
71626;SDS011;59475;52.464;13.590;2023-05-23T00:03:24;7.55;;;3.50;;
71626;SDS011;59475;52.464;13.590;2023-05-23T00:05:50;4.60;;;3.70;;
71626;SDS011;59475;52.464;13.590;2023-05-23T00:08:16;5.28;;;3.35;;
71626;SDS011;59475;52.464;13.590;2023-05-23T00:10:41;6.63;;;3.70;;
71626;SDS011;59475;52.464;13.590;2023-05-23T00:13:07;7.50;;;3.35;;
71626;SDS011;59475;52.464;13.590;2023-05-23T00:15:33;6.28;;;4.03;;
71626;SDS011;59475;52.464;13.590;2023-05-23T00:18:01;5.65;;;3.53;;
71626;SDS011;59475;52.464;13.590;2023-05-23T00:20:26;5.73;;;3.40;;
71626;SDS011;59475;52.464;13.590;2023-05-23T00:22:53;6.03;;;3.67;;
71626;SDS011;59475;52.464;13.590;2023-05-23T00:25:22;6.32;;;3.88;;
71626;SDS011;59475;52.464;13.590;2023-05-23T00:27:48;7.07;;;3.70;;
71626;SDS011;59475;52.464;13.590;2023-05-23T00:30:13;7.50;;;3.70;;
71626;SDS011;59475;52.464;13.590;2023-05-23T00:32:39;6.80;;;3.80;;
71626;SDS011;59475;52.464;13.590;2023-05-23T00:35:04;5.70;;;3.93;;
71626;SDS011;59475;52.464;13.590;2023-05-23T00:37:30;6.45;;;3.40;;
71626;SDS011;59475;52.464;13.590;2023-05-23T00:39:56;5.73;;;3.70;;
71626;SDS011;59475;52.464;13.590;2023-05-23T00:42:21;5.07;;;3.63;;
71626;SDS011;59475;52.464;13.590;2023-05-23T00:44:47;7.97;;;3.60;;
71626;SDS011;59475;52.464;13.590;2023-05-23T00:47:12;7.47;;;3.57;;
71626;SDS011;59475;52.464;13.590;2023-05-23T00:49:37;5.87;;;3.63;;
71626;SDS011;59475;52.464;13.590;2023-05-23T00:52:03;5.47;;;3.63;;
71626;SDS011;59475;52.464;13.590;2023-05-23T00:54:29;4.90;;;3.80;;
71626;SDS011;59475;52.464;13.590;2023-05-23T00:56:55;5.10;;;3.50;;
71626;SDS011;59475;52.464;13.590;2023-05-23T00:59:22;5.63;;;3.88;;
71626;SDS011;59475;52.464;13.590;2023-05-23T01:01:49;7.85;;;3.67;;
71626;SDS011;59475;52.464;13.590;2023-05-23T01:04:17;4.32;;;3.35;;
71626;SDS011;59475;52.464;13.590;2023-05-23T01:06:44;5.15;;;4.13;;
71626;SDS011;59475;52.464;13.590;2023-05-23T01:09:11;5.87;;;3.30;;
71626;SDS011;59475;52.464;13.590;2023-05-23T01:11:42;5.57;;;4.30;;
71626;SDS011;59475;52.464;13.590;2023-05-23T01:14:19;5.50;;;4.18;;
71626;SDS011;59475;52.464;13.590;2023-05-23T01:16:51;4.50;;;3.97;;
71626;SDS011;59475;52.464;13.590;2023-05-23T01:21:56;9.87;;;3.90;;
71626;SDS011;59475;52.464;13.590;2023-05-23T01:24:29;6.05;;;4.20;;
71626;SDS011;59475;52.464;13.590;2023-05-23T01:27:10;5.32;;;3.70;;
71626;SDS011;59475;52.464;13.590;2023-05-23T01:30:03;6.47;;;3.50;;
71626;SDS011;59475;52.464;13.590;2023-05-23T01:32:31;6.20;;;3.50;;
71626;SDS011;59475;52.464;13.590;2023-05-23T01:34:57;6.37;;;3.87;;
71626;SDS011;59475;52.464;13.590;2023-05-23T01:37:24;4.65;;;3.80;;
71626;SDS011;59475;52.464;13.590;2023-05-23T01:39:50;6.80;;;3.63;;
71626;SDS011;59475;52.464;13.590;2023-05-23T01:42:15;6.80;;;4.03;;
71626;SDS011;59475;52.464;13.590;2023-05-23T01:44:42;8.13;;;3.67;;
71626;SDS011;59475;52.464;13.590;2023-05-23T01:47:09;6.60;;;3.92;;
71626;SDS011;59475;52.464;13.590;2023-05-23T01:49:35;6.97;;;3.95;;
71626;SDS011;59475;52.464;13.590;2023-05-23T01:52:02;6.60;;;3.97;;
71626;SDS011;59475;52.464;13.590;2023-05-23T01:54:29;4.75;;;3.33;;
71626;SDS011;59475;52.464;13.590;2023-05-23T01:56:57;7.65;;;3.75;;
71626;SDS011;59475;52.464;13.590;2023-05-23T01:59:23;4.97;;;3.73;;
71626;SDS011;59475;52.464;13.590;2023-05-23T02:01:49;5.40;;;3.78;;
71626;SDS011;59475;52.464;13.590;2023-05-23T02:04:14;4.00;;;3.40;;
71626;SDS011;59475;52.464;13.590;2023-05-23T02:06:40;4.87;;;3.90;;
71626;SDS011;59475;52.464;13.590;2023-05-23T02:09:06;8.02;;;4.00;;
71626;SDS011;59475;52.464;13.590;2023-05-23T02:11:32;8.60;;;4.25;;
71626;SDS011;59475;52.464;13.590;2023-05-23T02:13:58;5.57;;;3.73;;
71626;SDS011;59475;52.464;13.590;2023-05-23T02:16:23;4.93;;;3.80;;
71626;SDS011;59475;52.464;13.590;2023-05-23T02:18:50;8.00;;;4.45;;
71626;SDS011;59475;52.464;13.590;2023-05-23T02:21:16;4.82;;;3.95;;
71626;SDS011;59475;52.464;13.590;2023-05-23T02:23:42;5.77;;;3.90;;
71626;SDS011;59475;52.464;13.590;2023-05-23T02:26:07;5.60;;;3.70;;
71626;SDS011;59475;52.464;13.590;2023-05-23T02:28:33;6.65;;;4.03;;
71626;SDS011;59475;52.464;13.590;2023-05-23T02:30:58;4.47;;;3.43;;
71626;SDS011;59475;52.464;13.590;2023-05-23T02:33:23;5.60;;;4.10;;
71626;SDS011;59475;52.464;13.590;2023-05-23T02:35:49;7.80;;;3.70;;
71626;SDS011;59475;52.464;13.590;2023-05-23T02:38:15;5.82;;;3.95;;
71626;SDS011;59475;52.464;13.590;2023-05-23T02:40:41;6.88;;;4.20;;
71626;SDS011;59475;52.464;13.590;2023-05-23T02:43:06;6.97;;;4.60;;
71626;SDS011;59475;52.464;13.590;2023-05-23T02:45:32;5.10;;;3.87;;
71626;SDS011;59475;52.464;13.590;2023-05-23T02:47:57;6.50;;;4.23;;
71626;SDS011;59475;52.464;13.590;2023-05-23T02:50:22;7.25;;;3.97;;
71626;SDS011;59475;52.464;13.590;2023-05-23T02:52:48;6.23;;;4.00;;
71626;SDS011;59475;52.464;13.590;2023-05-23T02:55:13;5.80;;;3.90;;
71626;SDS011;59475;52.464;13.590;2023-05-23T02:57:39;5.47;;;4.20;;
71626;SDS011;59475;52.464;13.590;2023-05-23T03:00:04;4.67;;;4.07;;
71626;SDS011;59475;52.464;13.590;2023-05-23T03:02:30;6.10;;;4.03;;
71626;SDS011;59475;52.464;13.590;2023-05-23T03:04:56;5.40;;;3.93;;
71626;SDS011;59475;52.464;13.590;2023-05-23T03:07:21;5.80;;;4.17;;
71626;SDS011;59475;52.464;13.590;2023-05-23T03:09:47;5.10;;;3.80;;
71626;SDS011;59475;52.464;13.590;2023-05-23T03:12:12;5.80;;;4.22;;
71626;SDS011;59475;52.464;13.590;2023-05-23T03:14:38;5.10;;;4.07;;
71626;SDS011;59475;52.464;13.590;2023-05-23T03:17:03;4.63;;;3.80;;
71626;SDS011;59475;52.464;13.590;2023-05-23T03:19:29;6.27;;;4.10;;
71626;SDS011;59475;52.464;13.590;2023-05-23T03:21:54;6.57;;;4.40;;
71626;SDS011;59475;52.464;13.590;2023-05-23T03:24:20;6.73;;;4.23;;
71626;SDS011;59475;52.464;13.590;2023-05-23T03:26:45;6.17;;;4.00;;
71626;SDS011;59475;52.464;13.590;2023-05-23T03:29:10;7.35;;;4.03;;
71626;SDS011;59475;52.464;13.590;2023-05-23T03:31:36;7.33;;;4.73;;
71626;SDS011;59475;52.464;13.590;2023-05-23T03:34:02;6.13;;;4.33;;
71626;SDS011;59475;52.464;13.590;2023-05-23T03:36:29;7.82;;;3.90;;
71626;SDS011;59475;52.464;13.590;2023-05-23T03:38:57;6.47;;;4.28;;
71626;SDS011;59475;52.464;13.590;2023-05-23T03:41:22;5.40;;;4.30;;
71626;SDS011;59475;52.464;13.590;2023-05-23T03:43:48;7.63;;;4.63;;
71626;SDS011;59475;52.464;13.590;2023-05-23T03:46:14;7.53;;;4.40;;
71626;SDS011;59475;52.464;13.590;2023-05-23T03:48:39;5.53;;;4.20;;
71626;SDS011;59475;52.464;13.590;2023-05-23T03:51:05;6.55;;;4.30;;
71626;SDS011;59475;52.464;13.590;2023-05-23T03:53:30;6.30;;;4.20;;
71626;SDS011;59475;52.464;13.590;2023-05-23T03:55:55;5.47;;;4.50;;
71626;SDS011;59475;52.464;13.590;2023-05-23T03:58:21;5.47;;;4.17;;
71626;SDS011;59475;52.464;13.590;2023-05-23T04:00:46;6.32;;;4.10;;
71626;SDS011;59475;52.464;13.590;2023-05-23T04:03:12;7.67;;;4.30;;
71626;SDS011;59475;52.464;13.590;2023-05-23T04:05:41;8.57;;;4.50;;
71626;SDS011;59475;52.464;13.590;2023-05-23T04:08:07;6.77;;;3.90;;
71626;SDS011;59475;52.464;13.590;2023-05-23T04:10:33;6.72;;;3.80;;
71626;SDS011;59475;52.464;13.590;2023-05-23T04:12:59;7.60;;;4.73;;
71626;SDS011;59475;52.464;13.590;2023-05-23T04:15:24;8.07;;;3.63;;
71626;SDS011;59475;52.464;13.590;2023-05-23T04:17:49;7.60;;;4.53;;
71626;SDS011;59475;52.464;13.590;2023-05-23T04:20:15;12.33;;;4.67;;
71626;SDS011;59475;52.464;13.590;2023-05-23T04:22:40;7.80;;;4.33;;
71626;SDS011;59475;52.464;13.590;2023-05-23T04:25:06;5.83;;;4.47;;
71626;SDS011;59475;52.464;13.590;2023-05-23T04:27:32;5.53;;;4.40;;
71626;SDS011;59475;52.464;13.590;2023-05-23T04:29:58;9.02;;;4.40;;
71626;SDS011;59475;52.464;13.590;2023-05-23T04:32:24;7.05;;;4.75;;
71626;SDS011;59475;52.464;13.590;2023-05-23T04:34:50;4.85;;;4.32;;
71626;SDS011;59475;52.464;13.590;2023-05-23T04:37:16;5.60;;;4.43;;
71626;SDS011;59475;52.464;13.590;2023-05-23T04:39:46;11.00;;;4.78;;
71626;SDS011;59475;52.464;13.590;2023-05-23T04:42:12;6.65;;;4.30;;
71626;SDS011;59475;52.464;13.590;2023-05-23T04:44:37;7.30;;;4.13;;
71626;SDS011;59475;52.464;13.590;2023-05-23T04:47:03;10.20;;;4.70;;
71626;SDS011;59475;52.464;13.590;2023-05-23T04:49:28;6.20;;;4.63;;
71626;SDS011;59475;52.464;13.590;2023-05-23T04:51:54;7.67;;;4.90;;
71626;SDS011;59475;52.464;13.590;2023-05-23T04:54:19;7.25;;;4.60;;
71626;SDS011;59475;52.464;13.590;2023-05-23T04:56:45;7.00;;;4.70;;
71626;SDS011;59475;52.464;13.590;2023-05-23T04:59:11;6.30;;;4.75;;
71626;SDS011;59475;52.464;13.590;2023-05-23T05:01:37;6.57;;;4.37;;
71626;SDS011;59475;52.464;13.590;2023-05-23T05:04:05;8.68;;;4.57;;
71626;SDS011;59475;52.464;13.590;2023-05-23T05:06:31;8.63;;;5.97;;
71626;SDS011;59475;52.464;13.590;2023-05-23T05:08:57;9.13;;;5.00;;
71626;SDS011;59475;52.464;13.590;2023-05-23T05:11:22;6.35;;;4.55;;
71626;SDS011;59475;52.464;13.590;2023-05-23T05:13:48;5.40;;;4.70;;
71626;SDS011;59475;52.464;13.590;2023-05-23T05:16:13;9.77;;;5.17;;
71626;SDS011;59475;52.464;13.590;2023-05-23T05:18:39;6.70;;;4.47;;
71626;SDS011;59475;52.464;13.590;2023-05-23T05:21:04;7.13;;;5.25;;
71626;SDS011;59475;52.464;13.590;2023-05-23T05:23:30;5.57;;;4.40;;
71626;SDS011;59475;52.464;13.590;2023-05-23T05:25:57;8.27;;;5.00;;
71626;SDS011;59475;52.464;13.590;2023-05-23T05:28:22;8.57;;;4.77;;
71626;SDS011;59475;52.464;13.590;2023-05-23T05:30:48;12.30;;;5.27;;
71626;SDS011;59475;52.464;13.590;2023-05-23T05:33:18;7.35;;;4.65;;
71626;SDS011;59475;52.464;13.590;2023-05-23T05:35:50;7.53;;;5.07;;
71626;SDS011;59475;52.464;13.590;2023-05-23T05:38:16;6.93;;;5.20;;
71626;SDS011;59475;52.464;13.590;2023-05-23T05:40:41;7.53;;;4.97;;
71626;SDS011;59475;52.464;13.590;2023-05-23T05:43:07;10.57;;;4.73;;
71626;SDS011;59475;52.464;13.590;2023-05-23T05:45:32;10.20;;;5.33;;
71626;SDS011;59475;52.464;13.590;2023-05-23T05:47:57;10.90;;;5.40;;
71626;SDS011;59475;52.464;13.590;2023-05-23T05:50:23;8.30;;;5.35;;
71626;SDS011;59475;52.464;13.590;2023-05-23T05:52:49;8.80;;;5.40;;
71626;SDS011;59475;52.464;13.590;2023-05-23T05:55:15;7.10;;;5.25;;
71626;SDS011;59475;52.464;13.590;2023-05-23T05:57:40;10.57;;;4.70;;
71626;SDS011;59475;52.464;13.590;2023-05-23T06:00:06;8.50;;;5.05;;
71626;SDS011;59475;52.464;13.590;2023-05-23T06:02:37;6.90;;;5.20;;
71626;SDS011;59475;52.464;13.590;2023-05-23T06:05:03;7.77;;;4.80;;
71626;SDS011;59475;52.464;13.590;2023-05-23T06:07:31;9.40;;;5.47;;
71626;SDS011;59475;52.464;13.590;2023-05-23T06:09:57;9.90;;;5.28;;
71626;SDS011;59475;52.464;13.590;2023-05-23T06:12:23;8.87;;;5.57;;
71626;SDS011;59475;52.464;13.590;2023-05-23T06:14:48;9.37;;;5.93;;
71626;SDS011;59475;52.464;13.590;2023-05-23T06:17:14;13.57;;;5.72;;
71626;SDS011;59475;52.464;13.590;2023-05-23T06:19:39;8.20;;;5.30;;
71626;SDS011;59475;52.464;13.590;2023-05-23T06:22:04;10.23;;;5.73;;
71626;SDS011;59475;52.464;13.590;2023-05-23T06:24:30;7.47;;;5.20;;
71626;SDS011;59475;52.464;13.590;2023-05-23T06:26:55;7.30;;;5.20;;
71626;SDS011;59475;52.464;13.590;2023-05-23T06:29:20;7.83;;;5.67;;
71626;SDS011;59475;52.464;13.590;2023-05-23T06:31:46;12.50;;;6.20;;
71626;SDS011;59475;52.464;13.590;2023-05-23T06:34:11;7.50;;;5.37;;
71626;SDS011;59475;52.464;13.590;2023-05-23T06:36:36;8.10;;;5.70;;
71626;SDS011;59475;52.464;13.590;2023-05-23T06:39:02;9.10;;;5.50;;
71626;SDS011;59475;52.464;13.590;2023-05-23T06:41:27;8.03;;;6.20;;
71626;SDS011;59475;52.464;13.590;2023-05-23T06:43:53;8.50;;;5.57;;
71626;SDS011;59475;52.464;13.590;2023-05-23T06:46:18;7.40;;;5.70;;
71626;SDS011;59475;52.464;13.590;2023-05-23T06:48:43;7.13;;;5.23;;
71626;SDS011;59475;52.464;13.590;2023-05-23T06:51:09;10.65;;;6.05;;
71626;SDS011;59475;52.464;13.590;2023-05-23T06:53:35;7.00;;;5.50;;
71626;SDS011;59475;52.464;13.590;2023-05-23T06:56:00;9.40;;;6.00;;
71626;SDS011;59475;52.464;13.590;2023-05-23T06:58:26;7.67;;;5.83;;
71626;SDS011;59475;52.464;13.590;2023-05-23T07:00:51;9.80;;;6.30;;
71626;SDS011;59475;52.464;13.590;2023-05-23T07:03:16;16.23;;;6.30;;
71626;SDS011;59475;52.464;13.590;2023-05-23T07:05:42;10.30;;;6.03;;
71626;SDS011;59475;52.464;13.590;2023-05-23T07:08:07;12.20;;;6.17;;
71626;SDS011;59475;52.464;13.590;2023-05-23T07:10:34;8.68;;;6.32;;
71626;SDS011;59475;52.464;13.590;2023-05-23T07:13:00;13.40;;;5.87;;
71626;SDS011;59475;52.464;13.590;2023-05-23T07:15:26;8.60;;;6.30;;
71626;SDS011;59475;52.464;13.590;2023-05-23T07:17:51;7.07;;;6.03;;
71626;SDS011;59475;52.464;13.590;2023-05-23T07:20:16;9.10;;;6.23;;
71626;SDS011;59475;52.464;13.590;2023-05-23T07:22:42;11.00;;;5.93;;
71626;SDS011;59475;52.464;13.590;2023-05-23T07:25:07;10.20;;;7.03;;
71626;SDS011;59475;52.464;13.590;2023-05-23T07:27:33;13.13;;;5.97;;
71626;SDS011;59475;52.464;13.590;2023-05-23T07:29:59;9.43;;;5.95;;
71626;SDS011;59475;52.464;13.590;2023-05-23T07:32:26;10.90;;;5.97;;
71626;SDS011;59475;52.464;13.590;2023-05-23T07:34:51;12.85;;;5.80;;
71626;SDS011;59475;52.464;13.590;2023-05-23T07:37:17;15.87;;;6.13;;
71626;SDS011;59475;52.464;13.590;2023-05-23T07:39:42;19.80;;;6.80;;
71626;SDS011;59475;52.464;13.590;2023-05-23T07:42:08;13.07;;;5.80;;
71626;SDS011;59475;52.464;13.590;2023-05-23T07:44:33;9.13;;;6.40;;
71626;SDS011;59475;52.464;13.590;2023-05-23T07:46:58;12.48;;;6.60;;
71626;SDS011;59475;52.464;13.590;2023-05-23T07:49:24;10.43;;;6.17;;
71626;SDS011;59475;52.464;13.590;2023-05-23T07:51:49;10.90;;;5.70;;
71626;SDS011;59475;52.464;13.590;2023-05-23T07:54:15;10.40;;;6.23;;
71626;SDS011;59475;52.464;13.590;2023-05-23T07:56:41;10.53;;;5.83;;
71626;SDS011;59475;52.464;13.590;2023-05-23T07:59:07;12.40;;;6.20;;
71626;SDS011;59475;52.464;13.590;2023-05-23T08:01:33;10.70;;;5.80;;
71626;SDS011;59475;52.464;13.590;2023-05-23T08:03:58;8.80;;;5.87;;
71626;SDS011;59475;52.464;13.590;2023-05-23T08:06:23;11.57;;;5.90;;
71626;SDS011;59475;52.464;13.590;2023-05-23T08:08:49;10.07;;;6.70;;
71626;SDS011;59475;52.464;13.590;2023-05-23T08:11:15;14.32;;;6.20;;
71626;SDS011;59475;52.464;13.590;2023-05-23T08:13:40;10.33;;;5.50;;
71626;SDS011;59475;52.464;13.590;2023-05-23T08:16:05;12.77;;;6.20;;
71626;SDS011;59475;52.464;13.590;2023-05-23T08:18:31;9.63;;;5.90;;
71626;SDS011;59475;52.464;13.590;2023-05-23T08:20:56;10.53;;;5.60;;
71626;SDS011;59475;52.464;13.590;2023-05-23T08:23:21;12.13;;;6.50;;
71626;SDS011;59475;52.464;13.590;2023-05-23T08:25:47;12.93;;;6.00;;
71626;SDS011;59475;52.464;13.590;2023-05-23T08:28:13;7.70;;;5.43;;
71626;SDS011;59475;52.464;13.590;2023-05-23T08:30:38;10.25;;;5.28;;
71626;SDS011;59475;52.464;13.590;2023-05-23T08:33:04;11.77;;;5.60;;
71626;SDS011;59475;52.464;13.590;2023-05-23T08:35:30;7.75;;;4.57;;
71626;SDS011;59475;52.464;13.590;2023-05-23T08:37:59;7.25;;;4.75;;
71626;SDS011;59475;52.464;13.590;2023-05-23T08:40:25;6.53;;;4.65;;
71626;SDS011;59475;52.464;13.590;2023-05-23T08:42:53;9.13;;;5.07;;
71626;SDS011;59475;52.464;13.590;2023-05-23T08:45:18;7.40;;;4.53;;
71626;SDS011;59475;52.464;13.590;2023-05-23T08:47:45;9.38;;;4.60;;
71626;SDS011;59475;52.464;13.590;2023-05-23T08:50:14;7.23;;;3.97;;
71626;SDS011;59475;52.464;13.590;2023-05-23T08:52:42;5.45;;;3.90;;
71626;SDS011;59475;52.464;13.590;2023-05-23T08:55:15;7.53;;;5.30;;
71626;SDS011;59475;52.464;13.590;2023-05-23T08:57:41;9.68;;;5.03;;
71626;SDS011;59475;52.464;13.590;2023-05-23T09:00:08;13.30;;;4.77;;
71626;SDS011;59475;52.464;13.590;2023-05-23T09:02:39;7.83;;;4.80;;
71626;SDS011;59475;52.464;13.590;2023-05-23T09:05:07;5.50;;;4.70;;
71626;SDS011;59475;52.464;13.590;2023-05-23T09:07:33;9.85;;;4.65;;
71626;SDS011;59475;52.464;13.590;2023-05-23T09:09:59;11.30;;;4.90;;
71626;SDS011;59475;52.464;13.590;2023-05-23T09:12:25;7.87;;;5.33;;
71626;SDS011;59475;52.464;13.590;2023-05-23T09:14:50;7.87;;;4.33;;
71626;SDS011;59475;52.464;13.590;2023-05-23T09:17:19;9.32;;;4.40;;
71626;SDS011;59475;52.464;13.590;2023-05-23T09:19:44;7.63;;;4.97;;
71626;SDS011;59475;52.464;13.590;2023-05-23T09:22:11;6.55;;;4.32;;
71626;SDS011;59475;52.464;13.590;2023-05-23T09:24:37;5.90;;;4.68;;
71626;SDS011;59475;52.464;13.590;2023-05-23T09:27:06;7.72;;;4.70;;
71626;SDS011;59475;52.464;13.590;2023-05-23T09:29:35;5.83;;;4.37;;
71626;SDS011;59475;52.464;13.590;2023-05-23T09:32:12;7.07;;;4.40;;
71626;SDS011;59475;52.464;13.590;2023-05-23T09:34:40;10.48;;;4.72;;
71626;SDS011;59475;52.464;13.590;2023-05-23T09:37:29;6.15;;;4.25;;
71626;SDS011;59475;52.464;13.590;2023-05-23T09:39:57;9.27;;;4.47;;
71626;SDS011;59475;52.464;13.590;2023-05-23T09:42:24;6.37;;;4.40;;
71626;SDS011;59475;52.464;13.590;2023-05-23T09:44:50;6.75;;;4.80;;
71626;SDS011;59475;52.464;13.590;2023-05-23T09:47:15;8.37;;;4.67;;
71626;SDS011;59475;52.464;13.590;2023-05-23T09:49:44;6.68;;;5.10;;
71626;SDS011;59475;52.464;13.590;2023-05-23T09:52:10;8.75;;;4.80;;
71626;SDS011;59475;52.464;13.590;2023-05-23T09:54:37;5.95;;;4.93;;
71626;SDS011;59475;52.464;13.590;2023-05-23T09:57:03;7.00;;;4.13;;
71626;SDS011;59475;52.464;13.590;2023-05-23T09:59:36;8.60;;;5.32;;
71626;SDS011;59475;52.464;13.590;2023-05-23T10:02:05;9.43;;;4.85;;
71626;SDS011;59475;52.464;13.590;2023-05-23T10:04:33;6.07;;;4.70;;
71626;SDS011;59475;52.464;13.590;2023-05-23T10:07:12;7.23;;;5.00;;
71626;SDS011;59475;52.464;13.590;2023-05-23T10:09:39;7.40;;;5.70;;
71626;SDS011;59475;52.464;13.590;2023-05-23T10:15:06;7.00;;;5.00;;
71626;SDS011;59475;52.464;13.590;2023-05-23T10:17:50;9.23;;;5.57;;
71626;SDS011;59475;52.464;13.590;2023-05-23T10:20:24;7.67;;;5.00;;
71626;SDS011;59475;52.464;13.590;2023-05-23T10:22:52;8.55;;;5.78;;
71626;SDS011;59475;52.464;13.590;2023-05-23T10:25:19;7.30;;;5.20;;
71626;SDS011;59475;52.464;13.590;2023-05-23T10:27:45;6.80;;;5.07;;
71626;SDS011;59475;52.464;13.590;2023-05-23T10:30:13;9.25;;;5.90;;
71626;SDS011;59475;52.464;13.590;2023-05-23T10:32:39;8.73;;;6.18;;
71626;SDS011;59475;52.464;13.590;2023-05-23T10:45:15;8.63;;;5.53;;
71626;SDS011;59475;52.464;13.590;2023-05-23T10:47:45;6.82;;;5.78;;
71626;SDS011;59475;52.464;13.590;2023-05-23T10:50:12;9.57;;;6.53;;
71626;SDS011;59475;52.464;13.590;2023-05-23T10:52:41;7.97;;;6.25;;
71626;SDS011;59475;52.464;13.590;2023-05-23T10:55:13;9.65;;;6.45;;
71626;SDS011;59475;52.464;13.590;2023-05-23T10:57:42;7.87;;;5.90;;
71626;SDS011;59475;52.464;13.590;2023-05-23T11:00:14;9.82;;;6.60;;
71626;SDS011;59475;52.464;13.590;2023-05-23T11:02:53;9.32;;;6.97;;
71626;SDS011;59475;52.464;13.590;2023-05-23T11:05:23;7.75;;;6.95;;
71626;SDS011;59475;52.464;13.590;2023-05-23T11:13:52;12.23;;;8.38;;
71626;SDS011;59475;52.464;13.590;2023-05-23T11:16:28;11.18;;;9.20;;
71626;SDS011;59475;52.464;13.590;2023-05-23T11:21:42;9.65;;;8.57;;
71626;SDS011;59475;52.464;13.590;2023-05-23T11:24:09;10.97;;;8.00;;
71626;SDS011;59475;52.464;13.590;2023-05-23T11:26:34;10.02;;;7.88;;
71626;SDS011;59475;52.464;13.590;2023-05-23T11:29:00;12.17;;;8.97;;
71626;SDS011;59475;52.464;13.590;2023-05-23T11:31:28;11.48;;;8.63;;
71626;SDS011;59475;52.464;13.590;2023-05-23T11:33:54;11.43;;;8.75;;
71626;SDS011;59475;52.464;13.590;2023-05-23T11:36:22;15.63;;;9.50;;
71626;SDS011;59475;52.464;13.590;2023-05-23T11:38:51;11.53;;;8.73;;
71626;SDS011;59475;52.464;13.590;2023-05-23T11:41:20;12.02;;;8.95;;
71626;SDS011;59475;52.464;13.590;2023-05-23T11:43:52;11.88;;;9.32;;
71626;SDS011;59475;52.464;13.590;2023-05-23T11:46:18;12.43;;;8.95;;
71626;SDS011;59475;52.464;13.590;2023-05-23T11:48:47;15.10;;;10.03;;
71626;SDS011;59475;52.464;13.590;2023-05-23T11:51:13;15.00;;;10.37;;
71626;SDS011;59475;52.464;13.590;2023-05-23T11:53:39;14.98;;;10.32;;
71626;SDS011;59475;52.464;13.590;2023-05-23T11:56:05;15.02;;;10.73;;
71626;SDS011;59475;52.464;13.590;2023-05-23T11:58:35;13.43;;;10.07;;
71626;SDS011;59475;52.464;13.590;2023-05-23T12:01:04;15.00;;;11.57;;
71626;SDS011;59475;52.464;13.590;2023-05-23T12:03:43;17.38;;;11.73;;
71626;SDS011;59475;52.464;13.590;2023-05-23T12:06:11;16.80;;;10.75;;
71626;SDS011;59475;52.464;13.590;2023-05-23T12:08:40;17.40;;;11.77;;
71626;SDS011;59475;52.464;13.590;2023-05-23T12:11:06;17.13;;;11.02;;
71626;SDS011;59475;52.464;13.590;2023-05-23T12:13:32;14.07;;;11.53;;
71626;SDS011;59475;52.464;13.590;2023-05-23T12:16:00;16.90;;;12.10;;
71626;SDS011;59475;52.464;13.590;2023-05-23T12:18:27;15.32;;;12.15;;
71626;SDS011;59475;52.464;13.590;2023-05-23T12:20:54;14.82;;;11.32;;
71626;SDS011;59475;52.464;13.590;2023-05-23T12:23:23;16.30;;;12.20;;
71626;SDS011;59475;52.464;13.590;2023-05-23T12:25:52;17.30;;;12.52;;
71626;SDS011;59475;52.464;13.590;2023-05-23T12:28:19;16.38;;;11.73;;
71626;SDS011;59475;52.464;13.590;2023-05-23T12:30:45;20.48;;;12.88;;
71626;SDS011;59475;52.464;13.590;2023-05-23T12:33:11;16.33;;;12.57;;
71626;SDS011;59475;52.464;13.590;2023-05-23T12:35:36;17.37;;;13.97;;
71626;SDS011;59475;52.464;13.590;2023-05-23T12:38:04;19.88;;;13.70;;
71626;SDS011;59475;52.464;13.590;2023-05-23T12:40:31;19.00;;;12.90;;
71626;SDS011;59475;52.464;13.590;2023-05-23T12:42:56;18.07;;;12.63;;
71626;SDS011;59475;52.464;13.590;2023-05-23T12:45:31;16.40;;;13.50;;
71626;SDS011;59475;52.464;13.590;2023-05-23T12:47:58;16.77;;;13.43;;
71626;SDS011;59475;52.464;13.590;2023-05-23T12:50:23;15.13;;;12.55;;
71626;SDS011;59475;52.464;13.590;2023-05-23T12:52:49;16.10;;;11.90;;
71626;SDS011;59475;52.464;13.590;2023-05-23T12:55:16;15.82;;;10.90;;
71626;SDS011;59475;52.464;13.590;2023-05-23T12:57:42;14.45;;;11.30;;
71626;SDS011;59475;52.464;13.590;2023-05-23T13:00:07;14.87;;;11.97;;
71626;SDS011;59475;52.464;13.590;2023-05-23T13:02:33;16.98;;;11.68;;
71626;SDS011;59475;52.464;13.590;2023-05-23T13:04:59;15.67;;;12.20;;
71626;SDS011;59475;52.464;13.590;2023-05-23T13:07:24;17.10;;;13.13;;
71626;SDS011;59475;52.464;13.590;2023-05-23T13:09:50;20.23;;;13.63;;
71626;SDS011;59475;52.464;13.590;2023-05-23T13:12:15;19.40;;;12.93;;
71626;SDS011;59475;52.464;13.590;2023-05-23T13:14:41;18.67;;;12.47;;
71626;SDS011;59475;52.464;13.590;2023-05-23T13:17:06;18.73;;;12.30;;
71626;SDS011;59475;52.464;13.590;2023-05-23T13:19:31;16.45;;;11.32;;
71626;SDS011;59475;52.464;13.590;2023-05-23T13:21:57;15.67;;;11.53;;
71626;SDS011;59475;52.464;13.590;2023-05-23T13:24:24;15.35;;;10.90;;
71626;SDS011;59475;52.464;13.590;2023-05-23T13:26:50;13.53;;;10.33;;
71626;SDS011;59475;52.464;13.590;2023-05-23T13:29:15;16.58;;;12.13;;
71626;SDS011;59475;52.464;13.590;2023-05-23T13:31:40;13.33;;;11.10;;
71626;SDS011;59475;52.464;13.590;2023-05-23T13:34:06;12.40;;;10.63;;
71626;SDS011;59475;52.464;13.590;2023-05-23T13:36:31;13.47;;;10.80;;
71626;SDS011;59475;52.464;13.590;2023-05-23T13:38:58;16.42;;;11.65;;
71626;SDS011;59475;52.464;13.590;2023-05-23T13:41:23;13.50;;;10.30;;
71626;SDS011;59475;52.464;13.590;2023-05-23T13:43:49;13.03;;;10.80;;
71626;SDS011;59475;52.464;13.590;2023-05-23T13:46:15;16.52;;;10.77;;
71626;SDS011;59475;52.464;13.590;2023-05-23T13:48:40;14.00;;;10.80;;
71626;SDS011;59475;52.464;13.590;2023-05-23T13:51:05;15.50;;;11.10;;
71626;SDS011;59475;52.464;13.590;2023-05-23T13:53:31;19.13;;;11.47;;
71626;SDS011;59475;52.464;13.590;2023-05-23T13:55:56;15.90;;;12.23;;
71626;SDS011;59475;52.464;13.590;2023-05-23T13:58:22;16.57;;;11.40;;
71626;SDS011;59475;52.464;13.590;2023-05-23T14:00:47;17.47;;;12.23;;
71626;SDS011;59475;52.464;13.590;2023-05-23T14:03:13;18.50;;;12.20;;
71626;SDS011;59475;52.464;13.590;2023-05-23T14:05:39;17.45;;;12.85;;
71626;SDS011;59475;52.464;13.590;2023-05-23T14:08:05;18.50;;;12.13;;
71626;SDS011;59475;52.464;13.590;2023-05-23T14:10:30;18.70;;;12.60;;
71626;SDS011;59475;52.464;13.590;2023-05-23T14:12:57;14.50;;;9.90;;
71626;SDS011;59475;52.464;13.590;2023-05-23T14:15:23;19.73;;;12.50;;
71626;SDS011;59475;52.464;13.590;2023-05-23T14:17:49;19.33;;;12.55;;
71626;SDS011;59475;52.464;13.590;2023-05-23T14:20:19;19.80;;;12.38;;
71626;SDS011;59475;52.464;13.590;2023-05-23T14:22:48;20.83;;;11.97;;
71626;SDS011;59475;52.464;13.590;2023-05-23T14:25:14;21.85;;;13.13;;
71626;SDS011;59475;52.464;13.590;2023-05-23T14:27:40;19.73;;;12.82;;
71626;SDS011;59475;52.464;13.590;2023-05-23T14:30:06;18.40;;;12.23;;
71626;SDS011;59475;52.464;13.590;2023-05-23T14:32:32;19.40;;;12.55;;
71626;SDS011;59475;52.464;13.590;2023-05-23T14:35:02;16.85;;;11.02;;
71626;SDS011;59475;52.464;13.590;2023-05-23T14:37:31;20.88;;;11.75;;
71626;SDS011;59475;52.464;13.590;2023-05-23T14:39:57;17.47;;;11.97;;
71626;SDS011;59475;52.464;13.590;2023-05-23T14:42:22;19.17;;;12.70;;
71626;SDS011;59475;52.464;13.590;2023-05-23T14:44:48;16.37;;;12.03;;
71626;SDS011;59475;52.464;13.590;2023-05-23T14:47:13;20.15;;;13.07;;